Campbellton, FL (32426)

1:00 AM CDT on May 24, 2015 (GMT -0500)
Malone School WeatherSTEM | | Change Station
CLOSE
Current Station
Personal Weather Station
Location: Malone, FL
Elevation: 157 ft
Nearby Weather Stations

Elev 157 ft 30.95 °N, 85.17 °W | Updated 8 minutes ago

Clear
Clear
73.8 °F
Feels Like 75 °F
N
3.0
Wind Variable Wind from ESE
Gusts 7.0 mph

Today
High -- | Low -- °F
--% Chance of Precip.
Yesterday
High -- | Low -- °F
Precip. -- in
5:41 AM 7:35 PM
Waxing Crescent, 36% visible
Pressure 30.19 in
Visibility 10.0 miles
Clouds Clear
Heat Index 75 °F
Dew Point 64 °F
Humidity 72%
Rainfall 0.00 in
Snow Depth Not available.
UV 0.0 out of 12
Pollen 5.90 out of 12
Air Quality Not available.
Flu Activity Sporadic
METAR KMAI 240553Z AUTO 11008KT 10SM CLR 24/19 A3020 RMK AO2 SLP224 T02390189 10294 20233 403110167 58001 $

More Conditions Fewer Conditions

Pressure 30.19 in
Visibility 10.0 miles
Clouds Clear
Heat Index 75 °F
Dew Point 64 °F
Humidity 72%
Rainfall 0.00 in
Snow Depth Not available.
UV 0.0 out of 12
Pollen 5.90 out of 12
Air Quality Not available.
Flu Activity Sporadic
METAR KMAI 240553Z AUTO 11008KT 10SM CLR 24/19 A3020 RMK AO2 SLP224 T02390189 10294 20233 403110167 58001 $

More Conditions Fewer Conditions

10-Day Weather Forecast

Almanac

Astronomy

May. 24, 2015 Rise Set
Actual Time
Civil Twilight
Nautical Twilight
Astronomical Twilight
Moon
Length of Visible Light
Length of Day
Tomorrow will be .
, % of the Moon is Illuminated

Today's Extremes

State Highs State Lows

Community

WunderPhotos

Upload Photos

1,823,694 photos uploaded!

WunderBlogs® & News

Nearby

Air Quality

  Air Quality AQ Index Pollutant
Not available.

Snow Depth

Station Depth Elevation

Earthquake Activity

City Distance Mag. Time & Date
Minimum magnitude displayed is 2.5.

Coastal Water Temperatures

Place Temperature

Stations

Nearby Weather Stations

Station Location Temp. Windchill Dew Point Humidity Wind Precip. Elev Updated Type